Terminal Aerodrome Forecast
Issued by NWS

Home | Current Version | Previous Version | Text Only | Print | Product List | Glossary On
Versions: 1 2 3 4 5 6 7 8 9 10 11 12 13 14 15 16 17 18 19 20 21 22 23 24 25 26 27 28 29 30 31 32 33 34 35 36 37 38 39 40 41 42
000
FTUS45 KBOU 302340
TAFAPA
TAF
KAPA 302340Z 3100/3124 02006KT P6SM SCT070 BKN100
     FM310300 02006KT P6SM VCSH SCT050 BKN080
     FM310600 02006KT P6SM VCSH SCT020 BKN030
      TEMPO 3107/3111 3SM -SN BR BKN020
     FM311200 32006KT P6SM VCSH SCT020 BKN030
      TEMPO 3112/3115 BKN020
     FM311600 30006KT P6SM SCT040 BKN070=

USA.gov is the U.S. government's official web portal to all federal, state and local government web resources and services.